sensor_id;sensor_type;location;lat;lon;timestamp;pressure;altitude;pressure_sealevel;temperature;humidity
14232;BME280;7200;52.194;9.900;2023-01-26T00:00:51;101386.78;;;-2.00;100.00
14232;BME280;7200;52.194;9.900;2023-01-26T00:03:17;101349.84;;;-2.25;100.00
14232;BME280;7200;52.194;9.900;2023-01-26T00:05:43;101370.97;;;-2.11;100.00
14232;BME280;7200;52.194;9.900;2023-01-26T00:08:09;101369.25;;;-2.10;100.00
14232;BME280;7200;52.194;9.900;2023-01-26T00:10:39;101371.91;;;-2.07;100.00
14232;BME280;7200;52.194;9.900;2023-01-26T00:13:05;101380.75;;;-2.01;100.00
14232;BME280;7200;52.194;9.900;2023-01-26T00:15:32;101354.22;;;-2.24;100.00
14232;BME280;7200;52.194;9.900;2023-01-26T00:17:59;101361.34;;;-2.17;100.00
14232;BME280;7200;52.194;9.900;2023-01-26T00:20:25;101335.00;;;-2.32;100.00
14232;BME280;7200;52.194;9.900;2023-01-26T00:22:50;101336.69;;;-2.32;100.00
14232;BME280;7200;52.194;9.900;2023-01-26T00:25:15;101323.66;;;-2.37;100.00
14232;BME280;7200;52.194;9.900;2023-01-26T00:27:41;101349.13;;;-2.21;100.00
14232;BME280;7200;52.194;9.900;2023-01-26T00:30:07;101323.00;;;-2.30;100.00
14232;BME280;7200;52.194;9.900;2023-01-26T00:32:34;101325.69;;;-2.27;100.00
14232;BME280;7200;52.194;9.900;2023-01-26T00:35:00;101321.38;;;-2.26;100.00
14232;BME280;7200;52.194;9.900;2023-01-26T00:37:25;101335.47;;;-2.17;100.00
14232;BME280;7200;52.194;9.900;2023-01-26T00:39:50;101324.16;;;-2.20;100.00
14232;BME280;7200;52.194;9.900;2023-01-26T00:42:15;101320.50;;;-2.27;100.00
14232;BME280;7200;52.194;9.900;2023-01-26T00:44:41;101310.91;;;-2.31;100.00
14232;BME280;7200;52.194;9.900;2023-01-26T00:47:08;101308.31;;;-2.31;100.00
14232;BME280;7200;52.194;9.900;2023-01-26T00:49:34;101307.69;;;-2.24;100.00
14232;BME280;7200;52.194;9.900;2023-01-26T00:52:00;101298.16;;;-2.25;100.00
14232;BME280;7200;52.194;9.900;2023-01-26T00:54:26;101328.75;;;-2.10;100.00
14232;BME280;7200;52.194;9.900;2023-01-26T00:56:52;101325.53;;;-2.03;100.00
14232;BME280;7200;52.194;9.900;2023-01-26T00:59:18;101296.72;;;-2.15;100.00
14232;BME280;7200;52.194;9.900;2023-01-26T01:01:43;101307.22;;;-2.10;100.00
14232;BME280;7200;52.194;9.900;2023-01-26T01:04:09;101299.19;;;-2.20;100.00
14232;BME280;7200;52.194;9.900;2023-01-26T01:06:34;101300.19;;;-2.14;100.00
14232;BME280;7200;52.194;9.900;2023-01-26T01:09:00;101287.78;;;-2.26;100.00
14232;BME280;7200;52.194;9.900;2023-01-26T01:11:25;101283.28;;;-2.32;100.00
14232;BME280;7200;52.194;9.900;2023-01-26T01:13:50;101290.34;;;-2.28;100.00
14232;BME280;7200;52.194;9.900;2023-01-26T01:16:16;101279.03;;;-2.30;100.00
14232;BME280;7200;52.194;9.900;2023-01-26T01:18:42;101274.78;;;-2.29;100.00
14232;BME280;7200;52.194;9.900;2023-01-26T01:21:09;101294.00;;;-2.20;100.00
14232;BME280;7200;52.194;9.900;2023-01-26T01:23:35;101297.75;;;-2.10;100.00
14232;BME280;7200;52.194;9.900;2023-01-26T01:26:02;101288.97;;;-2.15;100.00
14232;BME280;7200;52.194;9.900;2023-01-26T01:28:27;101313.84;;;-1.90;100.00
14232;BME280;7200;52.194;9.900;2023-01-26T01:30:53;101276.03;;;-2.15;100.00
14232;BME280;7200;52.194;9.900;2023-01-26T01:33:18;101305.00;;;-1.97;100.00
14232;BME280;7200;52.194;9.900;2023-01-26T01:35:54;101290.16;;;-2.04;100.00
14232;BME280;7200;52.194;9.900;2023-01-26T01:38:19;101279.00;;;-2.03;100.00
14232;BME280;7200;52.194;9.900;2023-01-26T01:40:45;101286.69;;;-2.04;100.00
14232;BME280;7200;52.194;9.900;2023-01-26T01:43:10;101277.28;;;-2.02;100.00
14232;BME280;7200;52.194;9.900;2023-01-26T01:45:44;101269.41;;;-2.07;100.00
14232;BME280;7200;52.194;9.900;2023-01-26T01:48:17;101272.16;;;-2.01;100.00
14232;BME280;7200;52.194;9.900;2023-01-26T01:50:44;101263.47;;;-2.03;100.00
14232;BME280;7200;52.194;9.900;2023-01-26T01:53:13;101274.16;;;-1.90;100.00
14232;BME280;7200;52.194;9.900;2023-01-26T01:55:42;101263.78;;;-1.92;100.00
14232;BME280;7200;52.194;9.900;2023-01-26T01:58:08;101283.19;;;-1.76;100.00
14232;BME280;7200;52.194;9.900;2023-01-26T02:00:33;101287.75;;;-1.67;100.00
14232;BME280;7200;52.194;9.900;2023-01-26T02:03:04;101276.38;;;-1.72;100.00
14232;BME280;7200;52.194;9.900;2023-01-26T02:05:54;101236.88;;;-1.99;100.00
14232;BME280;7200;52.194;9.900;2023-01-26T02:08:23;101249.28;;;-1.85;100.00
14232;BME280;7200;52.194;9.900;2023-01-26T02:10:53;101259.81;;;-1.79;100.00
14232;BME280;7200;52.194;9.900;2023-01-26T02:13:21;101257.34;;;-1.74;100.00
14232;BME280;7200;52.194;9.900;2023-01-26T02:15:48;101239.00;;;-1.84;100.00
14232;BME280;7200;52.194;9.900;2023-01-26T02:18:15;101223.94;;;-1.99;100.00
14232;BME280;7200;52.194;9.900;2023-01-26T02:20:46;101240.63;;;-1.87;100.00
14232;BME280;7200;52.194;9.900;2023-01-26T02:23:42;101242.53;;;-1.80;100.00
14232;BME280;7200;52.194;9.900;2023-01-26T02:26:15;101211.00;;;-1.99;100.00
14232;BME280;7200;52.194;9.900;2023-01-26T02:28:43;101207.41;;;-2.05;100.00
14232;BME280;7200;52.194;9.900;2023-01-26T02:31:09;101222.28;;;-1.97;100.00
14232;BME280;7200;52.194;9.900;2023-01-26T02:33:35;101224.09;;;-1.94;100.00
14232;BME280;7200;52.194;9.900;2023-01-26T02:36:01;101218.94;;;-1.92;100.00
14232;BME280;7200;52.194;9.900;2023-01-26T02:38:33;101224.09;;;-1.92;100.00
14232;BME280;7200;52.194;9.900;2023-01-26T02:41:04;101252.13;;;-1.76;100.00
14232;BME280;7200;52.194;9.900;2023-01-26T02:43:30;101241.84;;;-1.74;100.00
14232;BME280;7200;52.194;9.900;2023-01-26T02:45:56;101240.22;;;-1.71;100.00
14232;BME280;7200;52.194;9.900;2023-01-26T02:48:21;101231.41;;;-1.78;100.00
14232;BME280;7200;52.194;9.900;2023-01-26T02:51:06;101225.34;;;-1.78;100.00
14232;BME280;7200;52.194;9.900;2023-01-26T02:53:31;101242.84;;;-1.68;100.00
14232;BME280;7200;52.194;9.900;2023-01-26T02:55:57;101237.72;;;-1.66;100.00
14232;BME280;7200;52.194;9.900;2023-01-26T02:58:22;101219.31;;;-1.79;100.00
14232;BME280;7200;52.194;9.900;2023-01-26T03:00:47;101208.78;;;-1.85;100.00
14232;BME280;7200;52.194;9.900;2023-01-26T03:03:15;101222.81;;;-1.77;100.00
14232;BME280;7200;52.194;9.900;2023-01-26T03:05:42;101222.09;;;-1.71;100.00
14232;BME280;7200;52.194;9.900;2023-01-26T03:08:07;101227.34;;;-1.68;100.00
14232;BME280;7200;52.194;9.900;2023-01-26T03:10:33;101224.03;;;-1.64;100.00
14232;BME280;7200;52.194;9.900;2023-01-26T03:12:59;101219.63;;;-1.66;100.00
14232;BME280;7200;52.194;9.900;2023-01-26T03:15:25;101209.22;;;-1.69;100.00
14232;BME280;7200;52.194;9.900;2023-01-26T03:18:09;101220.53;;;-1.64;100.00
14232;BME280;7200;52.194;9.900;2023-01-26T03:20:53;101236.25;;;-1.57;100.00
14232;BME280;7200;52.194;9.900;2023-01-26T03:23:37;101221.50;;;-1.61;100.00
14232;BME280;7200;52.194;9.900;2023-01-26T03:26:21;101233.84;;;-1.49;100.00
14232;BME280;7200;52.194;9.900;2023-01-26T03:29:04;101230.31;;;-1.54;100.00
14232;BME280;7200;52.194;9.900;2023-01-26T03:31:30;101230.31;;;-1.54;100.00
14232;BME280;7200;52.194;9.900;2023-01-26T03:33:55;101231.25;;;-1.50;100.00
14232;BME280;7200;52.194;9.900;2023-01-26T03:36:20;101234.81;;;-1.47;100.00
14232;BME280;7200;52.194;9.900;2023-01-26T03:38:45;101246.25;;;-1.37;100.00
14232;BME280;7200;52.194;9.900;2023-01-26T03:41:11;101263.91;;;-1.22;100.00
14232;BME280;7200;52.194;9.900;2023-01-26T03:43:55;101266.63;;;-1.16;100.00
14232;BME280;7200;52.194;9.900;2023-01-26T03:46:39;101250.19;;;-1.18;100.00
14232;BME280;7200;52.194;9.900;2023-01-26T03:49:23;101255.50;;;-1.12;100.00
14232;BME280;7200;52.194;9.900;2023-01-26T03:52:07;101235.41;;;-1.22;100.00
14232;BME280;7200;52.194;9.900;2023-01-26T03:54:51;101235.41;;;-1.22;100.00
14232;BME280;7200;52.194;9.900;2023-01-26T03:57:35;101245.78;;;-1.21;100.00
14232;BME280;7200;52.194;9.900;2023-01-26T04:00:00;101250.31;;;-1.12;100.00
14232;BME280;7200;52.194;9.900;2023-01-26T04:02:26;101260.03;;;-1.03;100.00
14232;BME280;7200;52.194;9.900;2023-01-26T04:05:10;101249.63;;;-1.05;100.00
14232;BME280;7200;52.194;9.900;2023-01-26T04:07:54;101229.38;;;-1.21;100.00
14232;BME280;7200;52.194;9.900;2023-01-26T04:10:38;101225.06;;;-1.22;100.00
14232;BME280;7200;52.194;9.900;2023-01-26T04:13:03;101232.09;;;-1.16;100.00
14232;BME280;7200;52.194;9.900;2023-01-26T04:15:47;101227.78;;;-1.16;100.00
14232;BME280;7200;52.194;9.900;2023-01-26T04:18:31;101216.47;;;-1.20;100.00
14232;BME280;7200;52.194;9.900;2023-01-26T04:21:15;101193.78;;;-1.31;100.00
14232;BME280;7200;52.194;9.900;2023-01-26T04:23:55;101198.81;;;-1.36;100.00
14232;BME280;7200;52.194;9.900;2023-01-26T04:26:22;101199.66;;;-1.37;100.00
14232;BME280;7200;52.194;9.900;2023-01-26T04:28:48;101218.94;;;-1.26;100.00
14232;BME280;7200;52.194;9.900;2023-01-26T04:31:13;101216.41;;;-1.23;100.00
14232;BME280;7200;52.194;9.900;2023-01-26T04:33:40;101207.50;;;-1.34;100.00
14232;BME280;7200;52.194;9.900;2023-01-26T04:36:06;101218.88;;;-1.27;100.00
14232;BME280;7200;52.194;9.900;2023-01-26T04:38:32;101234.66;;;-1.18;100.00
14232;BME280;7200;52.194;9.900;2023-01-26T04:40:58;101226.00;;;-1.19;100.00
14232;BME280;7200;52.194;9.900;2023-01-26T04:43:23;101224.25;;;-1.20;100.00
14232;BME280;7200;52.194;9.900;2023-01-26T04:45:59;101223.44;;;-1.17;100.00
14232;BME280;7200;52.194;9.900;2023-01-26T04:48:27;101236.47;;;-1.14;100.00
14232;BME280;7200;52.194;9.900;2023-01-26T04:50:57;101217.97;;;-1.29;100.00
14232;BME280;7200;52.194;9.900;2023-01-26T04:53:23;101198.59;;;-1.45;100.00
14232;BME280;7200;52.194;9.900;2023-01-26T04:55:49;101216.06;;;-1.37;100.00
14232;BME280;7200;52.194;9.900;2023-01-26T04:58:14;101223.03;;;-1.34;100.00
14232;BME280;7200;52.194;9.900;2023-01-26T05:00:39;101241.22;;;-1.31;100.00
14232;BME280;7200;52.194;9.900;2023-01-26T05:03:04;101229.97;;;-1.33;100.00
14232;BME280;7200;52.194;9.900;2023-01-26T05:05:34;101225.41;;;-1.42;100.00
14232;BME280;7200;52.194;9.900;2023-01-26T05:08:00;101232.47;;;-1.36;100.00
14232;BME280;7200;52.194;9.900;2023-01-26T05:10:25;101240.47;;;-1.27;100.00
14232;BME280;7200;52.194;9.900;2023-01-26T05:12:50;101249.31;;;-1.19;100.00
14232;BME280;7200;52.194;9.900;2023-01-26T05:15:15;101238.72;;;-1.28;100.00
14232;BME280;7200;52.194;9.900;2023-01-26T05:17:41;101244.13;;;-1.19;100.00
14232;BME280;7200;52.194;9.900;2023-01-26T05:20:06;101261.69;;;-1.07;100.00
14232;BME280;7200;52.194;9.900;2023-01-26T05:22:32;101260.78;;;-1.09;100.00
14232;BME280;7200;52.194;9.900;2023-01-26T05:24:57;101257.13;;;-1.15;100.00
14232;BME280;7200;52.194;9.900;2023-01-26T05:27:22;101255.41;;;-1.16;100.00
14232;BME280;7200;52.194;9.900;2023-01-26T05:29:49;101256.13;;;-1.21;100.00
14232;BME280;7200;52.194;9.900;2023-01-26T05:32:14;101260.59;;;-1.16;100.00
14232;BME280;7200;52.194;9.900;2023-01-26T05:34:40;101251.66;;;-1.28;100.00
14232;BME280;7200;52.194;9.900;2023-01-26T05:37:05;101245.34;;;-1.39;100.00
14232;BME280;7200;52.194;9.900;2023-01-26T05:39:31;101257.44;;;-1.38;100.00
14232;BME280;7200;52.194;9.900;2023-01-26T05:41:56;101250.44;;;-1.42;100.00
14232;BME280;7200;52.194;9.900;2023-01-26T05:44:22;101268.06;;;-1.27;100.00
14232;BME280;7200;52.194;9.900;2023-01-26T05:46:49;101243.19;;;-1.55;100.00
14232;BME280;7200;52.194;9.900;2023-01-26T05:49:14;101262.38;;;-1.47;100.00
14232;BME280;7200;52.194;9.900;2023-01-26T05:51:39;101276.41;;;-1.38;100.00
14232;BME280;7200;52.194;9.900;2023-01-26T05:54:05;101262.31;;;-1.50;100.00
14232;BME280;7200;52.194;9.900;2023-01-26T05:56:30;101280.59;;;-1.44;100.00
14232;BME280;7200;52.194;9.900;2023-01-26T05:58:55;101277.09;;;-1.46;100.00
14232;BME280;7200;52.194;9.900;2023-01-26T06:01:20;101261.88;;;-1.67;100.00
14232;BME280;7200;52.194;9.900;2023-01-26T06:03:46;101278.31;;;-1.65;100.00
14232;BME280;7200;52.194;9.900;2023-01-26T06:06:11;101294.81;;;-1.60;100.00
14232;BME280;7200;52.194;9.900;2023-01-26T06:08:36;101282.47;;;-1.70;100.00
14232;BME280;7200;52.194;9.900;2023-01-26T06:11:02;101291.25;;;-1.65;100.00
14232;BME280;7200;52.194;9.900;2023-01-26T06:13:28;101293.72;;;-1.68;100.00
14232;BME280;7200;52.194;9.900;2023-01-26T06:15:53;101306.00;;;-1.61;100.00
14232;BME280;7200;52.194;9.900;2023-01-26T06:18:19;101304.94;;;-1.68;100.00
14232;BME280;7200;52.194;9.900;2023-01-26T06:20:44;101324.41;;;-1.50;100.00
14232;BME280;7200;52.194;9.900;2023-01-26T06:23:09;101314.59;;;-1.62;100.00
14232;BME280;7200;52.194;9.900;2023-01-26T06:25:37;101336.25;;;-1.59;100.00
14232;BME280;7200;52.194;9.900;2023-01-26T06:28:05;101342.50;;;-1.52;100.00
14232;BME280;7200;52.194;9.900;2023-01-26T06:30:30;101358.38;;;-1.38;100.00
14232;BME280;7200;52.194;9.900;2023-01-26T06:32:57;101350.56;;;-1.40;100.00
14232;BME280;7200;52.194;9.900;2023-01-26T06:35:22;101346.91;;;-1.48;100.00
14232;BME280;7200;52.194;9.900;2023-01-26T06:37:48;101354.88;;;-1.40;100.00
14232;BME280;7200;52.194;9.900;2023-01-26T06:40:15;101346.75;;;-1.54;100.00
14232;BME280;7200;52.194;9.900;2023-01-26T06:42:46;101355.50;;;-1.49;100.00
14232;BME280;7200;52.194;9.900;2023-01-26T06:45:11;101361.63;;;-1.45;100.00
14232;BME280;7200;52.194;9.900;2023-01-26T06:47:36;101373.16;;;-1.35;100.00
14232;BME280;7200;52.194;9.900;2023-01-26T06:50:02;101373.16;;;-1.35;100.00
14232;BME280;7200;52.194;9.900;2023-01-26T06:52:31;101353.50;;;-1.59;100.00
14232;BME280;7200;52.194;9.900;2023-01-26T06:54:58;101360.44;;;-1.58;100.00
14232;BME280;7200;52.194;9.900;2023-01-26T06:57:24;101367.41;;;-1.55;100.00
14232;BME280;7200;52.194;9.900;2023-01-26T06:59:50;101378.13;;;-1.42;100.00
14232;BME280;7200;52.194;9.900;2023-01-26T07:02:18;101385.84;;;-1.43;100.00
14232;BME280;7200;52.194;9.900;2023-01-26T07:04:44;101393.75;;;-1.39;100.00
14232;BME280;7200;52.194;9.900;2023-01-26T07:07:09;101386.66;;;-1.46;100.00
14232;BME280;7200;52.194;9.900;2023-01-26T07:09:34;101395.63;;;-1.33;100.00
14232;BME280;7200;52.194;9.900;2023-01-26T07:12:00;101399.19;;;-1.29;100.00
14232;BME280;7200;52.194;9.900;2023-01-26T07:14:25;101387.91;;;-1.31;100.00
14232;BME280;7200;52.194;9.900;2023-01-26T07:16:50;101395.69;;;-1.31;100.00
14232;BME280;7200;52.194;9.900;2023-01-26T07:19:15;101399.31;;;-1.25;100.00
14232;BME280;7200;52.194;9.900;2023-01-26T07:21:41;101404.44;;;-1.26;100.00
14232;BME280;7200;52.194;9.900;2023-01-26T07:24:08;101412.50;;;-1.15;100.00
14232;BME280;7200;52.194;9.900;2023-01-26T07:26:33;101404.66;;;-1.19;100.00
14232;BME280;7200;52.194;9.900;2023-01-26T07:28:58;101409.84;;;-1.19;100.00
14232;BME280;7200;52.194;9.900;2023-01-26T07:31:23;101418.66;;;-1.12;100.00
14232;BME280;7200;52.194;9.900;2023-01-26T07:33:49;101425.69;;;-1.06;100.00
14232;BME280;7200;52.194;9.900;2023-01-26T07:36:14;101417.81;;;-1.11;100.00
14232;BME280;7200;52.194;9.900;2023-01-26T07:38:39;101397.56;;;-1.26;100.00
14232;BME280;7200;52.194;9.900;2023-01-26T07:41:06;101410.75;;;-1.16;100.00
14232;BME280;7200;52.194;9.900;2023-01-26T07:43:34;101417.88;;;-1.08;100.00
14232;BME280;7200;52.194;9.900;2023-01-26T07:45:59;101432.81;;;-0.99;100.00
14232;BME280;7200;52.194;9.900;2023-01-26T07:48:24;101427.59;;;-1.01;100.00
14232;BME280;7200;52.194;9.900;2023-01-26T07:50:50;101420.78;;;-0.97;100.00
14232;BME280;7200;52.194;9.900;2023-01-26T07:53:16;101425.19;;;-0.93;100.00
14232;BME280;7200;52.194;9.900;2023-01-26T07:55:44;101429.66;;;-0.87;100.00
14232;BME280;7200;52.194;9.900;2023-01-26T07:58:10;101440.16;;;-0.83;100.00
14232;BME280;7200;52.194;9.900;2023-01-26T08:00:36;101433.22;;;-0.84;100.00
14232;BME280;7200;52.194;9.900;2023-01-26T08:03:01;101417.34;;;-0.96;100.00
14232;BME280;7200;52.194;9.900;2023-01-26T08:05:26;101415.69;;;-0.94;100.00
14232;BME280;7200;52.194;9.900;2023-01-26T08:07:52;101419.97;;;-0.94;100.00
14232;BME280;7200;52.194;9.900;2023-01-26T08:10:21;101413.00;;;-0.97;100.00
14232;BME280;7200;52.194;9.900;2023-01-26T08:12:46;101412.09;;;-0.99;100.00
14232;BME280;7200;52.194;9.900;2023-01-26T08:15:11;101417.34;;;-0.96;100.00
14232;BME280;7200;52.194;9.900;2023-01-26T08:17:36;101428.06;;;-0.82;100.00
14232;BME280;7200;52.194;9.900;2023-01-26T08:20:02;101434.22;;;-0.79;100.00
14232;BME280;7200;52.194;9.900;2023-01-26T08:22:28;101436.00;;;-0.76;100.00
14232;BME280;7200;52.194;9.900;2023-01-26T08:24:53;101433.66;;;-0.67;100.00
14232;BME280;7200;52.194;9.900;2023-01-26T08:27:18;101434.75;;;-0.57;100.00
14232;BME280;7200;52.194;9.900;2023-01-26T08:29:44;101423.41;;;-0.62;100.00
14232;BME280;7200;52.194;9.900;2023-01-26T08:32:09;101391.66;;;-0.88;100.00
14232;BME280;7200;52.194;9.900;2023-01-26T08:34:34;101399.34;;;-0.91;100.00
14232;BME280;7200;52.194;9.900;2023-01-26T08:37:00;101416.91;;;-0.80;100.00
14232;BME280;7200;52.194;9.900;2023-01-26T08:39:26;101422.47;;;-0.66;100.00
14232;BME280;7200;52.194;9.900;2023-01-26T08:41:51;101430.41;;;-0.58;100.00
14232;BME280;7200;52.194;9.900;2023-01-26T08:44:16;101426.34;;;-0.48;100.00
14232;BME280;7200;52.194;9.900;2023-01-26T08:46:44;101410.66;;;-0.54;100.00
14232;BME280;7200;52.194;9.900;2023-01-26T08:49:10;101412.31;;;-0.56;100.00
14232;BME280;7200;52.194;9.900;2023-01-26T08:51:35;101405.28;;;-0.62;100.00
14232;BME280;7200;52.194;9.900;2023-01-26T08:54:01;101423.03;;;-0.43;100.00
14232;BME280;7200;52.194;9.900;2023-01-26T08:56:26;101410.94;;;-0.42;100.00
14232;BME280;7200;52.194;9.900;2023-01-26T08:58:51;101414.38;;;-0.43;100.00
14232;BME280;7200;52.194;9.900;2023-01-26T09:01:17;101418.84;;;-0.37;100.00
14232;BME280;7200;52.194;9.900;2023-01-26T09:03:42;101394.06;;;-0.61;100.00
14232;BME280;7200;52.194;9.900;2023-01-26T09:06:10;101394.91;;;-0.61;100.00
14232;BME280;7200;52.194;9.900;2023-01-26T09:08:36;101391.47;;;-0.61;100.00
14232;BME280;7200;52.194;9.900;2023-01-26T09:11:04;101409.97;;;-0.46;100.00
14232;BME280;7200;52.194;9.900;2023-01-26T09:13:30;101392.50;;;-0.54;100.00
14232;BME280;7200;52.194;9.900;2023-01-26T09:15:56;101407.50;;;-0.41;100.00
14232;BME280;7200;52.194;9.900;2023-01-26T09:18:21;101387.50;;;-0.47;100.00
14232;BME280;7200;52.194;9.900;2023-01-26T09:23:24;101406.09;;;-0.28;100.00
14232;BME280;7200;52.194;9.900;2023-01-26T09:25:53;101416.78;;;-0.14;100.00
14232;BME280;7200;52.194;9.900;2023-01-26T09:28:18;101406.19;;;-0.24;100.00
14232;BME280;7200;52.194;9.900;2023-01-26T09:30:43;101404.63;;;-0.17;100.00
14232;BME280;7200;52.194;9.900;2023-01-26T09:33:09;101398.50;;;-0.21;100.00
14232;BME280;7200;52.194;9.900;2023-01-26T09:35:34;101366.97;;;-0.37;100.00
14232;BME280;7200;52.194;9.900;2023-01-26T09:37:59;101380.16;;;-0.27;100.00
14232;BME280;7200;52.194;9.900;2023-01-26T09:40:36;101376.72;;;-0.27;100.00
14232;BME280;7200;52.194;9.900;2023-01-26T09:48:52;101367.06;;;-0.33;100.00
14232;BME280;7200;52.194;9.900;2023-01-26T09:51:28;101375.94;;;-0.23;100.00
14232;BME280;7200;52.194;9.900;2023-01-26T09:53:59;101383.97;;;-0.12;100.00
14232;BME280;7200;52.194;9.900;2023-01-26T09:56:29;101391.91;;;-0.05;100.00
14232;BME280;7200;52.194;9.900;2023-01-26T10:01:42;101387.84;;;0.07;100.00
14232;BME280;7200;52.194;9.900;2023-01-26T10:04:21;101362.19;;;-0.19;100.00
14232;BME280;7200;52.194;9.900;2023-01-26T10:06:55;101364.03;;;-0.13;100.00
14232;BME280;7200;52.194;9.900;2023-01-26T10:09:25;101340.41;;;-0.27;100.00
14232;BME280;7200;52.194;9.900;2023-01-26T10:11:54;101352.81;;;-0.14;100.00
14232;BME280;7200;52.194;9.900;2023-01-26T10:14:38;101352.09;;;-0.07;100.00
14232;BME280;7200;52.194;9.900;2023-01-26T10:17:06;101350.50;;;-0.02;100.00
14232;BME280;7200;52.194;9.900;2023-01-26T10:24:50;101296.97;;;-0.37;100.00
14232;BME280;7200;52.194;9.900;2023-01-26T10:27:17;101331.06;;;-0.19;100.00
14232;BME280;7200;52.194;9.900;2023-01-26T10:29:43;101347.00;;;-0.02;100.00
14232;BME280;7200;52.194;9.900;2023-01-26T10:32:12;101332.16;;;-0.09;100.00
14232;BME280;7200;52.194;9.900;2023-01-26T10:34:38;101326.13;;;-0.08;100.00
14232;BME280;7200;52.194;9.900;2023-01-26T10:37:22;101346.41;;;0.10;100.00
14232;BME280;7200;52.194;9.900;2023-01-26T10:39:56;101335.16;;;0.11;100.00
14232;BME280;7200;52.194;9.900;2023-01-26T10:42:28;101329.16;;;0.12;100.00
14232;BME280;7200;52.194;9.900;2023-01-26T10:44:54;101330.06;;;0.14;100.00
14232;BME280;7200;52.194;9.900;2023-01-26T10:47:19;101314.28;;;0.05;100.00
14232;BME280;7200;52.194;9.900;2023-01-26T10:49:48;101292.41;;;-0.08;100.00
14232;BME280;7200;52.194;9.900;2023-01-26T10:52:21;101285.47;;;-0.09;100.00
14232;BME280;7200;52.194;9.900;2023-01-26T10:54:50;101280.13;;;-0.15;100.00
14232;BME280;7200;52.194;9.900;2023-01-26T10:57:25;101279.31;;;-0.14;100.00
14232;BME280;7200;52.194;9.900;2023-01-26T10:59:55;101303.09;;;0.07;100.00
14232;BME280;7200;52.194;9.900;2023-01-26T11:02:30;101286.72;;;0.11;100.00
14232;BME280;7200;52.194;9.900;2023-01-26T11:07:36;101278.88;;;0.07;100.00
14232;BME280;7200;52.194;9.900;2023-01-26T11:12:40;101288.53;;;0.14;100.00
14232;BME280;7200;52.194;9.900;2023-01-26T11:15:15;101297.41;;;0.25;100.00
14232;BME280;7200;52.194;9.900;2023-01-26T11:17:57;101269.50;;;0.13;100.00
14232;BME280;7200;52.194;9.900;2023-01-26T11:20:46;101295.78;;;0.32;100.00
14232;BME280;7200;52.194;9.900;2023-01-26T11:39:35;101264.91;;;0.46;100.00
14232;BME280;7200;52.194;9.900;2023-01-26T11:42:23;101268.47;;;0.52;100.00
14232;BME280;7200;52.194;9.900;2023-01-26T11:45:31;101256.38;;;0.51;100.00
14232;BME280;7200;52.194;9.900;2023-01-26T11:48:07;101243.28;;;0.47;100.00
14232;BME280;7200;52.194;9.900;2023-01-26T11:50:50;101221.47;;;0.37;100.00
14232;BME280;7200;52.194;9.900;2023-01-26T11:58:45;101216.13;;;0.28;100.00
14232;BME280;7200;52.194;9.900;2023-01-26T12:01:23;101214.44;;;0.30;100.00
14232;BME280;7200;52.194;9.900;2023-01-26T12:03:54;101196.03;;;0.16;100.00
14232;BME280;7200;52.194;9.900;2023-01-26T12:06:28;101200.34;;;0.15;100.00
14232;BME280;7200;52.194;9.900;2023-01-26T12:11:34;101181.25;;;0.12;100.00
14232;BME280;7200;52.194;9.900;2023-01-26T12:14:35;101196.97;;;0.19;100.00
14232;BME280;7200;52.194;9.900;2023-01-26T12:19:57;101203.22;;;0.31;100.00
14232;BME280;7200;52.194;9.900;2023-01-26T12:22:32;101185.69;;;0.17;100.00
14232;BME280;7200;52.194;9.900;2023-01-26T12:25:36;101188.31;;;0.21;100.00
14232;BME280;7200;52.194;9.900;2023-01-26T12:30:42;101187.50;;;0.23;100.00
14232;BME280;7200;52.194;9.900;2023-01-26T12:33:11;101184.94;;;0.26;100.00
14232;BME280;7200;52.194;9.900;2023-01-26T12:36:14;101180.50;;;0.17;100.00
14232;BME280;7200;52.194;9.900;2023-01-26T12:39:04;101178.69;;;0.15;100.00
14232;BME280;7200;52.194;9.900;2023-01-26T12:44:25;101173.41;;;0.09;100.00
14232;BME280;7200;52.194;9.900;2023-01-26T12:46:58;101186.41;;;0.10;100.00
14232;BME280;7200;52.194;9.900;2023-01-26T12:49:31;101195.16;;;0.17;100.00
14232;BME280;7200;52.194;9.900;2023-01-26T12:52:36;101185.47;;;0.07;100.00
14232;BME280;7200;52.194;9.900;2023-01-26T12:55:26;101187.94;;;-0.01;100.00
14232;BME280;7200;52.194;9.900;2023-01-26T12:58:23;101191.41;;;0.01;100.00
14232;BME280;7200;52.194;9.900;2023-01-26T13:01:14;101214.84;;;0.04;100.00
14232;BME280;7200;52.194;9.900;2023-01-26T13:03:44;101235.75;;;0.12;100.00
14232;BME280;7200;52.194;9.900;2023-01-26T13:08:51;101247.34;;;0.31;100.00
14232;BME280;7200;52.194;9.900;2023-01-26T13:16:52;101237.56;;;0.17;100.00
14232;BME280;7200;52.194;9.900;2023-01-26T13:24:48;101242.88;;;0.24;100.00
14232;BME280;7200;52.194;9.900;2023-01-26T13:27:33;101242.72;;;0.16;100.00
14232;BME280;7200;52.194;9.900;2023-01-26T13:35:16;101261.88;;;0.21;100.00
14232;BME280;7200;52.194;9.900;2023-01-26T13:40:27;101267.06;;;0.23;100.00
14232;BME280;7200;52.194;9.900;2023-01-26T13:46:20;101291.47;;;0.31;100.00
14232;BME280;7200;52.194;9.900;2023-01-26T13:48:50;101279.25;;;0.25;100.00
14232;BME280;7200;52.194;9.900;2023-01-26T13:51:17;101294.03;;;0.29;100.00
14232;BME280;7200;52.194;9.900;2023-01-26T13:53:52;101282.66;;;0.24;100.00
14232;BME280;7200;52.194;9.900;2023-01-26T13:56:27;101298.34;;;0.29;100.00
14232;BME280;7200;52.194;9.900;2023-01-26T13:58:53;101294.88;;;0.30;100.00
14232;BME280;7200;52.194;9.900;2023-01-26T14:01:26;101290.25;;;0.15;100.00
14232;BME280;7200;52.194;9.900;2023-01-26T14:04:04;101309.41;;;0.20;100.00
14232;BME280;7200;52.194;9.900;2023-01-26T14:06:30;101318.09;;;0.22;100.00
14232;BME280;7200;52.194;9.900;2023-01-26T14:08:56;101314.72;;;0.26;100.00
14232;BME280;7200;52.194;9.900;2023-01-26T14:11:23;101329.56;;;0.33;100.00
14232;BME280;7200;52.194;9.900;2023-01-26T14:13:53;101318.25;;;0.30;100.00
14232;BME280;7200;52.194;9.900;2023-01-26T14:16:26;101336.56;;;0.37;100.00
14232;BME280;7200;52.194;9.900;2023-01-26T14:24:12;101324.25;;;0.27;100.00
14232;BME280;7200;52.194;9.900;2023-01-26T14:26:39;101329.44;;;0.27;100.00
14232;BME280;7200;52.194;9.900;2023-01-26T14:29:11;101335.66;;;0.35;100.00